Enter the Airport ICAO Code

Search by Airport or City

Current Weather

LEPP | Pamplona Airport

Pamplona, Navarre, Spain

Last Update 31 Minutes Ago

Mostly Cloudy Sky

Temperature of 07 ēC

Moderate Winds from North

Temperature

07 ēC

Dew Point Temperature

02 ēC

Relative Humidity

70.51 %

Wind Direction

North (350ē, Without Significant Variations)

Wind Velocity

19 km/h (10 kt)

Gusts

None

Visibility

Greater than 10 Kilometers

Sea Level Pressure

1020 hPa (Hectopascals)

Layers of Clouds

30% to 60% of Sky Covered from 792 mts (2600 ft) Above Ground Level.

60% to 90% of Sky Covered from 1158 mts (3800 ft) Above Ground Level.

METAR LEPP 090930Z 35010KT 9999 SCT026 BKN038 07/02 Q1020

Weather Forecast

LEPP | Pamplona Airport

Pamplona, Navarre, Spain

Forecast valid for the next 23 Hours

From now on it is expected:

Mostly Cloudy Sky

Light to Moderate Winds from North

In 1 hour it is expected the begining of 7 hours with intermittent periods of:

Moderate Winds from North with Gusts

Maximum Temperature

09 ēC in 4 Hours

Minimum Temperature

00 ēC in 17 Hours

TAF LEPP 090800Z 0909/1009 34009KT 9999 BKN040 TX09/0914Z TN00/1003Z PROB30 TEMPO 0909/0910 RA TEMPO 0911/0918 34015G25KT